sensor_id;sensor_type;location;lat;lon;timestamp;temperature;humidity
71396;DHT22;59888;55.814;37.132;2022-07-12T00:00:04;25.05;38.56
71396;DHT22;59888;55.814;37.132;2022-07-12T00:02:31;25.06;39.03
71396;DHT22;59888;55.814;37.132;2022-07-12T00:04:57;25.04;39.11
71396;DHT22;59888;55.814;37.132;2022-07-12T00:07:23;25.00;39.26
71396;DHT22;59888;55.814;37.132;2022-07-12T00:09:49;24.99;39.32
71396;DHT22;59888;55.814;37.132;2022-07-12T00:12:15;25.02;39.12
71396;DHT22;59888;55.814;37.132;2022-07-12T00:14:41;25.00;39.60
71396;DHT22;59888;55.814;37.132;2022-07-12T00:17:06;24.97;39.42
71396;DHT22;59888;55.814;37.132;2022-07-12T00:19:32;24.98;39.78
71396;DHT22;59888;55.814;37.132;2022-07-12T00:21:58;24.97;39.97
71396;DHT22;59888;55.814;37.132;2022-07-12T00:24:24;24.95;39.40
71396;DHT22;59888;55.814;37.132;2022-07-12T00:26:50;24.92;40.78
71396;DHT22;59888;55.814;37.132;2022-07-12T00:29:16;24.90;40.13
71396;DHT22;59888;55.814;37.132;2022-07-12T00:31:42;24.90;40.10
71396;DHT22;59888;55.814;37.132;2022-07-12T00:34:08;24.88;39.81
71396;DHT22;59888;55.814;37.132;2022-07-12T00:36:33;24.90;40.00
71396;DHT22;59888;55.814;37.132;2022-07-12T00:38:59;24.90;40.23
71396;DHT22;59888;55.814;37.132;2022-07-12T00:41:25;24.90;40.85
71396;DHT22;59888;55.814;37.132;2022-07-12T00:43:51;24.88;40.15
71396;DHT22;59888;55.814;37.132;2022-07-12T00:46:21;24.90;39.98
71396;DHT22;59888;55.814;37.132;2022-07-12T00:48:48;24.93;39.30
71396;DHT22;59888;55.814;37.132;2022-07-12T00:51:14;24.87;40.49
71396;DHT22;59888;55.814;37.132;2022-07-12T00:53:41;24.86;42.17
71396;DHT22;59888;55.814;37.132;2022-07-12T00:56:07;24.86;40.00
71396;DHT22;59888;55.814;37.132;2022-07-12T00:58:33;24.85;40.62
71396;DHT22;59888;55.814;37.132;2022-07-12T01:00:59;24.86;40.17
71396;DHT22;59888;55.814;37.132;2022-07-12T01:03:25;24.85;40.49
71396;DHT22;59888;55.814;37.132;2022-07-12T01:05:53;24.83;40.55
71396;DHT22;59888;55.814;37.132;2022-07-12T01:08:19;24.80;40.76
71396;DHT22;59888;55.814;37.132;2022-07-12T01:10:47;24.77;41.12
71396;DHT22;59888;55.814;37.132;2022-07-12T01:13:13;24.75;41.09
71396;DHT22;59888;55.814;37.132;2022-07-12T01:15:40;24.75;41.16
71396;DHT22;59888;55.814;37.132;2022-07-12T01:18:06;24.73;41.74
71396;DHT22;59888;55.814;37.132;2022-07-12T01:20:33;24.69;41.87
71396;DHT22;59888;55.814;37.132;2022-07-12T01:22:59;24.65;41.07
71396;DHT22;59888;55.814;37.132;2022-07-12T01:25:26;24.64;41.33
71396;DHT22;59888;55.814;37.132;2022-07-12T01:27:52;24.66;41.34
71396;DHT22;59888;55.814;37.132;2022-07-12T01:30:19;24.66;41.97
71396;DHT22;59888;55.814;37.132;2022-07-12T01:32:45;24.65;41.60
71396;DHT22;59888;55.814;37.132;2022-07-12T01:35:12;24.68;41.56
71396;DHT22;59888;55.814;37.132;2022-07-12T01:37:41;24.65;42.41
71396;DHT22;59888;55.814;37.132;2022-07-12T01:40:09;24.65;41.72
71396;DHT22;59888;55.814;37.132;2022-07-12T01:42:36;24.65;41.89
71396;DHT22;59888;55.814;37.132;2022-07-12T01:45:03;24.68;41.45
71396;DHT22;59888;55.814;37.132;2022-07-12T01:47:31;24.65;41.77
71396;DHT22;59888;55.814;37.132;2022-07-12T01:49:58;24.68;41.53
71396;DHT22;59888;55.814;37.132;2022-07-12T01:52:24;24.64;42.16
71396;DHT22;59888;55.814;37.132;2022-07-12T01:54:50;24.61;41.70
71396;DHT22;59888;55.814;37.132;2022-07-12T01:57:16;24.59;41.68
71396;DHT22;59888;55.814;37.132;2022-07-12T01:59:42;24.59;42.66
71396;DHT22;59888;55.814;37.132;2022-07-12T02:02:09;24.59;41.70
71396;DHT22;59888;55.814;37.132;2022-07-12T02:04:35;24.57;42.45
71396;DHT22;59888;55.814;37.132;2022-07-12T02:07:02;24.55;42.29
71396;DHT22;59888;55.814;37.132;2022-07-12T02:09:29;24.55;42.44
71396;DHT22;59888;55.814;37.132;2022-07-12T02:11:55;24.49;42.73
71396;DHT22;59888;55.814;37.132;2022-07-12T02:14:20;24.47;42.74
71396;DHT22;59888;55.814;37.132;2022-07-12T02:16:47;24.48;42.78
71396;DHT22;59888;55.814;37.132;2022-07-12T02:19:13;24.47;43.19
71396;DHT22;59888;55.814;37.132;2022-07-12T02:21:39;24.44;43.63
71396;DHT22;59888;55.814;37.132;2022-07-12T02:24:06;24.41;43.07
71396;DHT22;59888;55.814;37.132;2022-07-12T02:26:33;24.40;43.67
71396;DHT22;59888;55.814;37.132;2022-07-12T02:29:00;24.41;43.97
71396;DHT22;59888;55.814;37.132;2022-07-12T02:31:26;24.41;43.26
71396;DHT22;59888;55.814;37.132;2022-07-12T02:33:52;24.41;43.77
71396;DHT22;59888;55.814;37.132;2022-07-12T02:36:18;24.40;43.80
71396;DHT22;59888;55.814;37.132;2022-07-12T02:38:44;24.36;44.29
71396;DHT22;59888;55.814;37.132;2022-07-12T02:41:10;24.34;43.61
71396;DHT22;59888;55.814;37.132;2022-07-12T02:43:36;24.33;44.08
71396;DHT22;59888;55.814;37.132;2022-07-12T02:46:09;24.31;44.87
71396;DHT22;59888;55.814;37.132;2022-07-12T02:48:36;24.28;45.06
71396;DHT22;59888;55.814;37.132;2022-07-12T02:51:03;24.26;45.46
71396;DHT22;59888;55.814;37.132;2022-07-12T02:53:29;24.26;44.51
71396;DHT22;59888;55.814;37.132;2022-07-12T02:55:56;24.28;44.84
71396;DHT22;59888;55.814;37.132;2022-07-12T02:58:22;24.33;44.55
71396;DHT22;59888;55.814;37.132;2022-07-12T03:00:48;24.38;44.54
71396;DHT22;59888;55.814;37.132;2022-07-12T03:03:14;24.40;44.86
71396;DHT22;59888;55.814;37.132;2022-07-12T03:05:41;24.41;43.38
71396;DHT22;59888;55.814;37.132;2022-07-12T03:08:07;24.42;45.48
71396;DHT22;59888;55.814;37.132;2022-07-12T03:10:34;24.45;44.89
71396;DHT22;59888;55.814;37.132;2022-07-12T03:13:00;24.55;44.55
71396;DHT22;59888;55.814;37.132;2022-07-12T03:15:27;24.74;44.43
71396;DHT22;59888;55.814;37.132;2022-07-12T03:17:57;24.91;43.55
71396;DHT22;59888;55.814;37.132;2022-07-12T03:20:24;25.03;43.88
71396;DHT22;59888;55.814;37.132;2022-07-12T03:22:50;25.13;43.77
71396;DHT22;59888;55.814;37.132;2022-07-12T03:25:18;25.22;43.62
71396;DHT22;59888;55.814;37.132;2022-07-12T03:27:44;25.25;43.22
71396;DHT22;59888;55.814;37.132;2022-07-12T03:30:11;25.31;43.15
71396;DHT22;59888;55.814;37.132;2022-07-12T03:32:37;25.38;43.06
71396;DHT22;59888;55.814;37.132;2022-07-12T03:35:03;25.42;42.93
71396;DHT22;59888;55.814;37.132;2022-07-12T03:37:43;25.50;43.56
71396;DHT22;59888;55.814;37.132;2022-07-12T03:40:10;25.59;42.81
71396;DHT22;59888;55.814;37.132;2022-07-12T03:42:36;25.65;42.72
71396;DHT22;59888;55.814;37.132;2022-07-12T03:45:02;25.71;42.38
71396;DHT22;59888;55.814;37.132;2022-07-12T03:47:29;25.72;41.68
71396;DHT22;59888;55.814;37.132;2022-07-12T03:49:57;25.65;42.13
71396;DHT22;59888;55.814;37.132;2022-07-12T03:55:29;25.63;42.07
71396;DHT22;59888;55.814;37.132;2022-07-12T03:57:54;25.69;42.26
71396;DHT22;59888;55.814;37.132;2022-07-12T04:00:20;25.72;42.41
71396;DHT22;59888;55.814;37.132;2022-07-12T04:02:46;25.74;41.97
71396;DHT22;59888;55.814;37.132;2022-07-12T04:05:12;25.87;42.04
71396;DHT22;59888;55.814;37.132;2022-07-12T04:07:38;25.97;41.42
71396;DHT22;59888;55.814;37.132;2022-07-12T04:10:05;26.16;41.54
71396;DHT22;59888;55.814;37.132;2022-07-12T04:12:31;26.38;41.19
71396;DHT22;59888;55.814;37.132;2022-07-12T04:14:57;26.55;40.82
71396;DHT22;59888;55.814;37.132;2022-07-12T04:17:23;26.55;40.67
71396;DHT22;59888;55.814;37.132;2022-07-12T04:19:49;26.45;41.03
71396;DHT22;59888;55.814;37.132;2022-07-12T04:22:14;26.36;40.67
71396;DHT22;59888;55.814;37.132;2022-07-12T04:24:40;26.21;40.80
71396;DHT22;59888;55.814;37.132;2022-07-12T04:27:06;26.12;41.28
71396;DHT22;59888;55.814;37.132;2022-07-12T04:29:32;26.05;41.50
71396;DHT22;59888;55.814;37.132;2022-07-12T04:32:03;25.99;41.65
71396;DHT22;59888;55.814;37.132;2022-07-12T04:34:29;25.90;41.50
71396;DHT22;59888;55.814;37.132;2022-07-12T04:36:55;25.83;41.71
71396;DHT22;59888;55.814;37.132;2022-07-12T04:39:21;25.88;41.52
71396;DHT22;59888;55.814;37.132;2022-07-12T04:41:47;25.93;41.94
71396;DHT22;59888;55.814;37.132;2022-07-12T04:44:12;25.92;42.02
71396;DHT22;59888;55.814;37.132;2022-07-12T04:46:38;25.90;42.60
71396;DHT22;59888;55.814;37.132;2022-07-12T04:49:04;25.84;41.90
71396;DHT22;59888;55.814;37.132;2022-07-12T04:51:31;25.83;41.68
71396;DHT22;59888;55.814;37.132;2022-07-12T04:53:58;25.84;41.94
71396;DHT22;59888;55.814;37.132;2022-07-12T04:56:24;25.84;41.61
71396;DHT22;59888;55.814;37.132;2022-07-12T04:58:49;25.77;42.11
71396;DHT22;59888;55.814;37.132;2022-07-12T05:01:16;25.71;41.99
71396;DHT22;59888;55.814;37.132;2022-07-12T05:03:42;25.67;41.84
71396;DHT22;59888;55.814;37.132;2022-07-12T05:06:08;25.66;42.10
71396;DHT22;59888;55.814;37.132;2022-07-12T05:08:34;25.71;41.82
71396;DHT22;59888;55.814;37.132;2022-07-12T05:11:00;25.73;42.20
71396;DHT22;59888;55.814;37.132;2022-07-12T05:13:26;25.74;41.79
71396;DHT22;59888;55.814;37.132;2022-07-12T05:15:51;25.76;42.17
71396;DHT22;59888;55.814;37.132;2022-07-12T05:18:17;25.78;41.96
71396;DHT22;59888;55.814;37.132;2022-07-12T05:20:43;25.74;42.16
71396;DHT22;59888;55.814;37.132;2022-07-12T05:23:09;25.77;42.25
71396;DHT22;59888;55.814;37.132;2022-07-12T05:25:35;25.69;42.79
71396;DHT22;59888;55.814;37.132;2022-07-12T05:28:00;25.61;42.41
71396;DHT22;59888;55.814;37.132;2022-07-12T05:30:26;25.56;42.63
71396;DHT22;59888;55.814;37.132;2022-07-12T05:32:52;25.47;42.81
71396;DHT22;59888;55.814;37.132;2022-07-12T05:35:18;25.43;42.89
71396;DHT22;59888;55.814;37.132;2022-07-12T05:37:44;25.39;43.03
71396;DHT22;59888;55.814;37.132;2022-07-12T05:40:10;25.35;42.48
71396;DHT22;59888;55.814;37.132;2022-07-12T05:42:36;25.25;42.73
71396;DHT22;59888;55.814;37.132;2022-07-12T05:45:03;25.17;43.14
71396;DHT22;59888;55.814;37.132;2022-07-12T05:47:29;25.18;43.32
71396;DHT22;59888;55.814;37.132;2022-07-12T05:49:55;25.24;43.27
71396;DHT22;59888;55.814;37.132;2022-07-12T05:52:21;25.24;43.13
71396;DHT22;59888;55.814;37.132;2022-07-12T05:55:05;25.27;43.42
71396;DHT22;59888;55.814;37.132;2022-07-12T05:57:32;25.24;42.99
71396;DHT22;59888;55.814;37.132;2022-07-12T05:59:58;25.28;43.35
71396;DHT22;59888;55.814;37.132;2022-07-12T06:02:23;25.25;43.56
71396;DHT22;59888;55.814;37.132;2022-07-12T06:04:49;25.21;43.86
71396;DHT22;59888;55.814;37.132;2022-07-12T06:07:15;25.18;43.93
71396;DHT22;59888;55.814;37.132;2022-07-12T06:09:41;25.15;44.25
71396;DHT22;59888;55.814;37.132;2022-07-12T06:12:07;25.03;44.58
71396;DHT22;59888;55.814;37.132;2022-07-12T06:14:33;24.83;45.48
71396;DHT22;59888;55.814;37.132;2022-07-12T06:16:59;24.71;45.73
71396;DHT22;59888;55.814;37.132;2022-07-12T06:19:26;24.58;47.73
71396;DHT22;59888;55.814;37.132;2022-07-12T06:21:52;24.40;47.80
71396;DHT22;59888;55.814;37.132;2022-07-12T06:24:18;24.32;47.60
71396;DHT22;59888;55.814;37.132;2022-07-12T06:26:43;24.28;47.87
71396;DHT22;59888;55.814;37.132;2022-07-12T06:29:09;24.29;48.22
71396;DHT22;59888;55.814;37.132;2022-07-12T06:31:35;24.33;48.79
71396;DHT22;59888;55.814;37.132;2022-07-12T06:34:01;24.33;48.36
71396;DHT22;59888;55.814;37.132;2022-07-12T06:36:27;24.41;48.34
71396;DHT22;59888;55.814;37.132;2022-07-12T06:38:52;24.40;48.31
71396;DHT22;59888;55.814;37.132;2022-07-12T06:41:18;24.38;48.72
71396;DHT22;59888;55.814;37.132;2022-07-12T06:43:44;24.35;48.73
71396;DHT22;59888;55.814;37.132;2022-07-12T06:46:10;24.39;48.34
71396;DHT22;59888;55.814;37.132;2022-07-12T06:48:36;24.45;48.99
71396;DHT22;59888;55.814;37.132;2022-07-12T06:51:01;24.47;48.93
71396;DHT22;59888;55.814;37.132;2022-07-12T06:53:27;24.45;48.47
71396;DHT22;59888;55.814;37.132;2022-07-12T06:55:53;24.39;49.18
71396;DHT22;59888;55.814;37.132;2022-07-12T06:58:19;24.34;48.95
71396;DHT22;59888;55.814;37.132;2022-07-12T07:00:45;24.33;49.62
71396;DHT22;59888;55.814;37.132;2022-07-12T07:03:10;24.38;49.04
71396;DHT22;59888;55.814;37.132;2022-07-12T07:05:36;24.38;49.02
71396;DHT22;59888;55.814;37.132;2022-07-12T07:08:03;24.34;49.36
71396;DHT22;59888;55.814;37.132;2022-07-12T07:10:29;24.33;48.89
71396;DHT22;59888;55.814;37.132;2022-07-12T07:12:55;24.34;48.91
71396;DHT22;59888;55.814;37.132;2022-07-12T07:15:21;24.46;49.56
71396;DHT22;59888;55.814;37.132;2022-07-12T07:17:47;24.47;48.52
71396;DHT22;59888;55.814;37.132;2022-07-12T07:20:13;24.54;48.26
71396;DHT22;59888;55.814;37.132;2022-07-12T07:22:39;24.64;48.07
71396;DHT22;59888;55.814;37.132;2022-07-12T07:25:06;24.74;48.71
71396;DHT22;59888;55.814;37.132;2022-07-12T07:27:32;24.80;48.28
71396;DHT22;59888;55.814;37.132;2022-07-12T07:29:58;24.80;48.08
71396;DHT22;59888;55.814;37.132;2022-07-12T07:32:42;24.94;47.72
71396;DHT22;59888;55.814;37.132;2022-07-12T07:35:08;25.13;48.27
71396;DHT22;59888;55.814;37.132;2022-07-12T07:37:34;25.30;48.02
71396;DHT22;59888;55.814;37.132;2022-07-12T07:40:00;25.52;47.60
71396;DHT22;59888;55.814;37.132;2022-07-12T07:42:26;25.66;47.02
71396;DHT22;59888;55.814;37.132;2022-07-12T07:44:52;25.93;46.02
71396;DHT22;59888;55.814;37.132;2022-07-12T07:47:18;26.07;46.12
71396;DHT22;59888;55.814;37.132;2022-07-12T07:49:44;26.19;46.38
71396;DHT22;59888;55.814;37.132;2022-07-12T07:52:10;26.35;44.75
71396;DHT22;59888;55.814;37.132;2022-07-12T07:54:35;26.38;45.25
71396;DHT22;59888;55.814;37.132;2022-07-12T07:57:01;26.60;45.24
71396;DHT22;59888;55.814;37.132;2022-07-12T07:59:27;26.73;45.00
71396;DHT22;59888;55.814;37.132;2022-07-12T08:01:53;26.80;44.59
71396;DHT22;59888;55.814;37.132;2022-07-12T08:04:20;26.84;44.01
71396;DHT22;59888;55.814;37.132;2022-07-12T08:06:47;26.89;43.74
71396;DHT22;59888;55.814;37.132;2022-07-12T08:09:14;26.98;43.83
71396;DHT22;59888;55.814;37.132;2022-07-12T08:11:40;27.02;43.68
71396;DHT22;59888;55.814;37.132;2022-07-12T08:14:11;27.12;43.51
71396;DHT22;59888;55.814;37.132;2022-07-12T08:16:38;27.16;43.19
71396;DHT22;59888;55.814;37.132;2022-07-12T08:19:04;27.13;43.35
71396;DHT22;59888;55.814;37.132;2022-07-12T08:21:30;27.28;43.11
71396;DHT22;59888;55.814;37.132;2022-07-12T08:23:56;27.38;43.16
71396;DHT22;59888;55.814;37.132;2022-07-12T08:26:23;27.35;42.71
71396;DHT22;59888;55.814;37.132;2022-07-12T08:28:49;27.37;42.84
71396;DHT22;59888;55.814;37.132;2022-07-12T08:31:14;27.52;42.75
71396;DHT22;59888;55.814;37.132;2022-07-12T08:33:41;27.61;42.32
71396;DHT22;59888;55.814;37.132;2022-07-12T08:36:08;27.63;42.08
71396;DHT22;59888;55.814;37.132;2022-07-12T08:38:37;27.54;41.98
71396;DHT22;59888;55.814;37.132;2022-07-12T08:41:04;27.45;42.04
71396;DHT22;59888;55.814;37.132;2022-07-12T08:43:41;27.52;42.10
71396;DHT22;59888;55.814;37.132;2022-07-12T08:46:09;27.67;41.66
71396;DHT22;59888;55.814;37.132;2022-07-12T08:48:36;27.82;41.24
71396;DHT22;59888;55.814;37.132;2022-07-12T08:51:03;28.02;40.63
71396;DHT22;59888;55.814;37.132;2022-07-12T08:53:35;28.19;40.32
71396;DHT22;59888;55.814;37.132;2022-07-12T08:56:02;28.33;39.95
71396;DHT22;59888;55.814;37.132;2022-07-12T08:58:28;28.40;39.68
71396;DHT22;59888;55.814;37.132;2022-07-12T09:00:54;28.46;39.51
71396;DHT22;59888;55.814;37.132;2022-07-12T09:03:20;28.59;39.30
71396;DHT22;59888;55.814;37.132;2022-07-12T09:05:54;28.62;39.29
71396;DHT22;59888;55.814;37.132;2022-07-12T09:08:28;28.65;39.29
71396;DHT22;59888;55.814;37.132;2022-07-12T09:10:57;28.68;39.20
71396;DHT22;59888;55.814;37.132;2022-07-12T09:16:32;28.72;39.07
71396;DHT22;59888;55.814;37.132;2022-07-12T09:19:13;28.73;38.93
71396;DHT22;59888;55.814;37.132;2022-07-12T09:21:47;28.80;38.78
71396;DHT22;59888;55.814;37.132;2022-07-12T09:24:13;28.98;38.65
71396;DHT22;59888;55.814;37.132;2022-07-12T09:26:39;29.15;38.17
71396;DHT22;59888;55.814;37.132;2022-07-12T09:29:06;29.22;38.21
71396;DHT22;59888;55.814;37.132;2022-07-12T09:31:49;29.20;37.98
71396;DHT22;59888;55.814;37.132;2022-07-12T09:34:33;29.08;38.09
71396;DHT22;59888;55.814;37.132;2022-07-12T09:37:18;29.00;38.37
71396;DHT22;59888;55.814;37.132;2022-07-12T09:39:46;28.86;38.43
71396;DHT22;59888;55.814;37.132;2022-07-12T09:42:12;28.80;38.59
71396;DHT22;59888;55.814;37.132;2022-07-12T09:44:39;28.75;38.62
71396;DHT22;59888;55.814;37.132;2022-07-12T09:47:10;28.83;38.49
71396;DHT22;59888;55.814;37.132;2022-07-12T09:49:39;28.92;38.46
71396;DHT22;59888;55.814;37.132;2022-07-12T09:52:06;29.04;38.55
71396;DHT22;59888;55.814;37.132;2022-07-12T09:54:40;29.16;38.09
71396;DHT22;59888;55.814;37.132;2022-07-12T09:57:23;29.09;37.92
71396;DHT22;59888;55.814;37.132;2022-07-12T09:59:51;28.99;38.16
71396;DHT22;59888;55.814;37.132;2022-07-12T10:02:19;28.91;38.09
71396;DHT22;59888;55.814;37.132;2022-07-12T10:04:47;28.83;38.42
71396;DHT22;59888;55.814;37.132;2022-07-12T10:07:14;28.79;38.56
71396;DHT22;59888;55.814;37.132;2022-07-12T10:09:45;28.87;38.57
71396;DHT22;59888;55.814;37.132;2022-07-12T10:12:15;28.93;38.32
71396;DHT22;59888;55.814;37.132;2022-07-12T10:14:43;28.91;38.38
71396;DHT22;59888;55.814;37.132;2022-07-12T10:17:10;29.02;38.55
71396;DHT22;59888;55.814;37.132;2022-07-12T10:19:37;29.11;38.36
71396;DHT22;59888;55.814;37.132;2022-07-12T10:22:33;29.22;38.28
71396;DHT22;59888;55.814;37.132;2022-07-12T10:24:59;29.30;38.17
71396;DHT22;59888;55.814;37.132;2022-07-12T10:30:12;29.21;37.40
71396;DHT22;59888;55.814;37.132;2022-07-12T10:32:42;29.42;36.76
71396;DHT22;59888;55.814;37.132;2022-07-12T10:35:13;29.46;36.88
71396;DHT22;59888;55.814;37.132;2022-07-12T10:37:39;29.41;36.94
71396;DHT22;59888;55.814;37.132;2022-07-12T10:40:18;29.36;36.40
71396;DHT22;59888;55.814;37.132;2022-07-12T11:01:02;29.65;34.44
71396;DHT22;59888;55.814;37.132;2022-07-12T11:03:44;29.76;34.05
71396;DHT22;59888;55.814;37.132;2022-07-12T11:06:13;29.62;34.51
71396;DHT22;59888;55.814;37.132;2022-07-12T11:09:06;29.47;33.87
71396;DHT22;59888;55.814;37.132;2022-07-12T11:11:39;29.53;34.82
71396;DHT22;59888;55.814;37.132;2022-07-12T11:14:05;29.62;34.73
71396;DHT22;59888;55.814;37.132;2022-07-12T11:16:31;29.66;34.57
71396;DHT22;59888;55.814;37.132;2022-07-12T11:18:57;29.81;33.89
71396;DHT22;59888;55.814;37.132;2022-07-12T11:21:23;30.00;34.21
71396;DHT22;59888;55.814;37.132;2022-07-12T11:23:50;30.16;34.18
71396;DHT22;59888;55.814;37.132;2022-07-12T11:26:17;30.13;34.05
71396;DHT22;59888;55.814;37.132;2022-07-12T11:28:44;30.13;33.82
71396;DHT22;59888;55.814;37.132;2022-07-12T11:31:11;30.17;34.00
71396;DHT22;59888;55.814;37.132;2022-07-12T11:33:42;30.18;33.34
71396;DHT22;59888;55.814;37.132;2022-07-12T11:36:10;30.16;32.02
71396;DHT22;59888;55.814;37.132;2022-07-12T11:38:38;30.09;33.78
71396;DHT22;59888;55.814;37.132;2022-07-12T11:41:05;30.05;33.62
71396;DHT22;59888;55.814;37.132;2022-07-12T11:43:32;30.02;33.82
71396;DHT22;59888;55.814;37.132;2022-07-12T11:45:59;29.88;33.92
71396;DHT22;59888;55.814;37.132;2022-07-12T11:48:26;29.76;33.88
71396;DHT22;59888;55.814;37.132;2022-07-12T11:50:53;29.66;33.98
71396;DHT22;59888;55.814;37.132;2022-07-12T11:53:22;29.71;34.01
71396;DHT22;59888;55.814;37.132;2022-07-12T11:55:50;29.65;33.76
71396;DHT22;59888;55.814;37.132;2022-07-12T11:58:17;29.61;34.19
71396;DHT22;59888;55.814;37.132;2022-07-12T12:00:44;29.65;34.00
71396;DHT22;59888;55.814;37.132;2022-07-12T12:03:12;29.70;33.92
71396;DHT22;59888;55.814;37.132;2022-07-12T12:05:38;29.77;33.60
71396;DHT22;59888;55.814;37.132;2022-07-12T12:08:07;29.77;33.43
71396;DHT22;59888;55.814;37.132;2022-07-12T12:10:33;29.88;33.31
71396;DHT22;59888;55.814;37.132;2022-07-12T12:13:00;29.92;33.83
71396;DHT22;59888;55.814;37.132;2022-07-12T12:15:29;29.90;33.50
71396;DHT22;59888;55.814;37.132;2022-07-12T12:18:02;29.98;33.61
71396;DHT22;59888;55.814;37.132;2022-07-12T12:20:29;30.11;33.40
71396;DHT22;59888;55.814;37.132;2022-07-12T12:23:04;30.07;33.10
71396;DHT22;59888;55.814;37.132;2022-07-12T12:25:32;29.87;33.15
71396;DHT22;59888;55.814;37.132;2022-07-12T12:28:05;29.57;33.63
71396;DHT22;59888;55.814;37.132;2022-07-12T12:30:41;29.48;34.05
71396;DHT22;59888;55.814;37.132;2022-07-12T12:33:13;29.45;34.45
71396;DHT22;59888;55.814;37.132;2022-07-12T12:35:39;29.34;34.78
71396;DHT22;59888;55.814;37.132;2022-07-12T12:38:15;29.37;34.98
71396;DHT22;59888;55.814;37.132;2022-07-12T12:40:50;29.75;34.73
71396;DHT22;59888;55.814;37.132;2022-07-12T12:43:20;30.10;34.50
71396;DHT22;59888;55.814;37.132;2022-07-12T12:45:50;30.38;33.83
71396;DHT22;59888;55.814;37.132;2022-07-12T12:48:21;30.38;34.20
71396;DHT22;59888;55.814;37.132;2022-07-12T12:50:49;30.35;34.09
71396;DHT22;59888;55.814;37.132;2022-07-12T12:53:23;30.59;34.00
71396;DHT22;59888;55.814;37.132;2022-07-12T12:55:51;30.86;33.44
71396;DHT22;59888;55.814;37.132;2022-07-12T12:58:18;31.24;33.06
71396;DHT22;59888;55.814;37.132;2022-07-12T13:00:47;31.58;33.01
71396;DHT22;59888;55.814;37.132;2022-07-12T13:03:14;31.90;31.36
71396;DHT22;59888;55.814;37.132;2022-07-12T13:05:41;31.65;31.33
71396;DHT22;59888;55.814;37.132;2022-07-12T13:08:08;31.43;31.26
71396;DHT22;59888;55.814;37.132;2022-07-12T13:10:35;31.41;31.73
71396;DHT22;59888;55.814;37.132;2022-07-12T13:13:05;32.58;30.40
71396;DHT22;59888;55.814;37.132;2022-07-12T13:15:32;33.59;30.80
71396;DHT22;59888;55.814;37.132;2022-07-12T13:17:58;33.80;26.46
71396;DHT22;59888;55.814;37.132;2022-07-12T13:20:25;35.04;28.83
71396;DHT22;59888;55.814;37.132;2022-07-12T13:22:55;34.74;27.78
71396;DHT22;59888;55.814;37.132;2022-07-12T13:25:21;35.29;27.29
71396;DHT22;59888;55.814;37.132;2022-07-12T13:27:47;33.37;27.51
71396;DHT22;59888;55.814;37.132;2022-07-12T13:30:15;32.71;28.56
71396;DHT22;59888;55.814;37.132;2022-07-12T13:32:41;32.24;29.00
71396;DHT22;59888;55.814;37.132;2022-07-12T13:35:09;31.24;30.03
71396;DHT22;59888;55.814;37.132;2022-07-12T13:37:36;30.33;31.21
71396;DHT22;59888;55.814;37.132;2022-07-12T13:40:03;29.66;32.06
71396;DHT22;59888;55.814;37.132;2022-07-12T13:42:52;29.18;32.64
71396;DHT22;59888;55.814;37.132;2022-07-12T13:45:20;28.89;33.07
71396;DHT22;59888;55.814;37.132;2022-07-12T13:47:46;28.72;33.71
71396;DHT22;59888;55.814;37.132;2022-07-12T13:50:15;30.96;33.16
71396;DHT22;59888;55.814;37.132;2022-07-12T13:52:43;32.48;29.19
71396;DHT22;59888;55.814;37.132;2022-07-12T13:55:11;32.49;30.44
71396;DHT22;59888;55.814;37.132;2022-07-12T13:57:38;32.91;29.77
71396;DHT22;59888;55.814;37.132;2022-07-12T14:00:06;32.78;28.20
71396;DHT22;59888;55.814;37.132;2022-07-12T14:02:41;32.16;29.41
71396;DHT22;59888;55.814;37.132;2022-07-12T14:05:08;31.78;29.39
71396;DHT22;59888;55.814;37.132;2022-07-12T14:07:36;31.31;30.48
71396;DHT22;59888;55.814;37.132;2022-07-12T14:10:02;30.98;30.83
71396;DHT22;59888;55.814;37.132;2022-07-12T14:12:29;30.52;31.46
71396;DHT22;59888;55.814;37.132;2022-07-12T14:14:55;30.17;31.80
71396;DHT22;59888;55.814;37.132;2022-07-12T14:17:48;29.87;31.31
71396;DHT22;59888;55.814;37.132;2022-07-12T14:20:17;29.76;32.14
71396;DHT22;59888;55.814;37.132;2022-07-12T14:22:43;29.75;32.12
71396;DHT22;59888;55.814;37.132;2022-07-12T14:25:10;29.64;32.62
71396;DHT22;59888;55.814;37.132;2022-07-12T14:27:37;29.70;32.65
71396;DHT22;59888;55.814;37.132;2022-07-12T14:30:04;30.20;33.11
71396;DHT22;59888;55.814;37.132;2022-07-12T14:32:32;31.85;32.34
71396;DHT22;59888;55.814;37.132;2022-07-12T14:35:00;32.24;30.22
71396;DHT22;59888;55.814;37.132;2022-07-12T14:37:26;32.12;30.22
71396;DHT22;59888;55.814;37.132;2022-07-12T14:39:52;31.70;30.32
71396;DHT22;59888;55.814;37.132;2022-07-12T14:42:18;31.68;31.97
71396;DHT22;59888;55.814;37.132;2022-07-12T14:44:45;33.06;29.22
71396;DHT22;59888;55.814;37.132;2022-07-12T14:47:11;33.61;30.37
71396;DHT22;59888;55.814;37.132;2022-07-12T14:49:37;33.75;28.58
71396;DHT22;59888;55.814;37.132;2022-07-12T14:52:04;33.78;28.42
71396;DHT22;59888;55.814;37.132;2022-07-12T14:54:33;33.06;28.89
71396;DHT22;59888;55.814;37.132;2022-07-12T14:56:58;32.47;29.58
71396;DHT22;59888;55.814;37.132;2022-07-12T14:59:24;32.09;29.83
71396;DHT22;59888;55.814;37.132;2022-07-12T15:01:50;31.92;31.47
71396;DHT22;59888;55.814;37.132;2022-07-12T15:04:17;31.79;30.32
71396;DHT22;59888;55.814;37.132;2022-07-12T15:06:43;31.49;30.75
71396;DHT22;59888;55.814;37.132;2022-07-12T15:09:10;31.29;30.87
71396;DHT22;59888;55.814;37.132;2022-07-12T15:11:36;30.95;31.37
71396;DHT22;59888;55.814;37.132;2022-07-12T15:14:03;30.56;31.76
71396;DHT22;59888;55.814;37.132;2022-07-12T15:16:29;30.18;32.19
71396;DHT22;59888;55.814;37.132;2022-07-12T15:18:55;29.97;32.52
71396;DHT22;59888;55.814;37.132;2022-07-12T15:21:22;29.98;33.29
71396;DHT22;59888;55.814;37.132;2022-07-12T15:23:48;30.06;32.63
71396;DHT22;59888;55.814;37.132;2022-07-12T15:26:14;30.00;32.72
71396;DHT22;59888;55.814;37.132;2022-07-12T15:28:55;29.82;32.80
71396;DHT22;59888;55.814;37.132;2022-07-12T15:31:22;29.68;33.16
71396;DHT22;59888;55.814;37.132;2022-07-12T15:33:51;29.72;33.14
71396;DHT22;59888;55.814;37.132;2022-07-12T15:36:17;29.54;33.44
71396;DHT22;59888;55.814;37.132;2022-07-12T15:38:44;30.18;32.91
71396;DHT22;59888;55.814;37.132;2022-07-12T15:41:13;30.09;32.86
71396;DHT22;59888;55.814;37.132;2022-07-12T15:43:40;29.83;33.07